Pagrindinis puslapis
METAR-TAF:

METAR-TAF

Oro uostai :

Pataja-Rayong, Tailandas

platuma: 12-38N, ilguma: 101-21E, Aukštis: 3 m

Dabartinis oras

Ataskaita buvo paskelbta 35 minutes, ne 23:30 UTC
Vėjas 5 kt iš Pietų/Pietvakarių
Temperatūra 28°C
Drėgmė 84%
Slėgis 1008 hPa
Matomumas 10 km arba daugiau
Mažai debesys ne aukštis 2000 ft

METAR: VTBU 042330Z 21005KT 9999 FEW020 28/25 Q1008 NOSIG

Laikas: 07:05 (00:05 UTC)

Prognozė

Ataskaita buvo paskelbta 1 valandą ir 5 minutes, ne 23:00 UTC
Prognozė galioja nuo 05 metu 00 UTC su 05 metu 24 UTC
Vėjas 10 kt iš Pietų
Matomumas 10 km arba daugiau
Mažai debesys ne aukštis 2000 ft
Laikinai
nuo 05 metu 07 UTC su 05 metu 12 UTC
Vėjas 14 kt nuo kintamojo kryptimis
Matomumas: 5000 m
Mažai debesys ne aukštis 1800 ft, Liūtiniai kamuoliniai debesys.
Išsisklaidę debesys ne aukštis 3000 ft
Su prošvaistėmis ne aukštis 10000 ft
perkūnija, lietus

TAF: VTBU 042300Z 0500/0524 19010KT 9999 FEW020 TEMPO 0507/0512 VRB14KT 5000 TSRA FEW018CB SCT030 BKN100

Orai ataskaitas ir orų prognozės (METAR, TAF).

turimą stotys yra geltonos ir raudonos taškus žemėlapyje.

Perkelti pele per norėdami pamatyti stoties vardą.

Tada spustelėkite, norėdami matyti oro stebėjimo ir prognozės.

Norėdami pakeisti žemėlapį: spustelėkite ant žalios mygtukų su juodo kryžiaus žemyn,; žalią mygtuką su brūkšneliu, jei norite nutolinti; arba žalių rodyklių gretimoms žemėlapius.


METAR-TAF: